createdAt,value
2016-08-13T00:00:42.038Z,64.28
2016-08-13T00:01:42.048Z,64.08
2016-08-13T00:02:41.256Z,64.08
2016-08-13T00:03:41.403Z,64.56
2016-08-13T00:04:41.351Z,64.18
2016-08-13T00:05:42.163Z,64.66
2016-08-13T00:06:41.986Z,64.18
2016-08-13T00:07:41.348Z,63.98
2016-08-13T00:08:42.171Z,64.18
2016-08-13T00:09:42.187Z,64.86
2016-08-13T00:10:42.093Z,63.67
2016-08-13T00:11:41.312Z,64.28
2016-08-13T00:12:42.025Z,64.66
2016-08-13T00:13:41.481Z,64.28
2016-08-13T00:14:42.110Z,64.63
2016-08-13T00:15:42.043Z,64.08
2016-08-13T00:16:42.168Z,64.15
2016-08-13T00:17:41.473Z,64.05
2016-08-13T00:18:42.112Z,63.98
2016-08-13T00:19:42.092Z,64.28
2016-08-13T00:20:41.513Z,64.66
2016-08-13T00:21:41.420Z,63.76
2016-08-13T00:22:42.137Z,63.7
2016-08-13T00:23:42.195Z,64.28
2016-08-13T00:24:42.134Z,64.37
2016-08-13T00:25:42.103Z,64.66
2016-08-13T00:26:42.167Z,64.08
2016-08-13T00:27:41.469Z,63.6
2016-08-13T00:28:42.187Z,64.47
2016-08-13T00:29:41.638Z,64.56
2016-08-13T00:30:42.152Z,64.28
2016-08-13T00:31:42.187Z,64.37
2016-08-13T00:32:42.227Z,63.7
2016-08-13T00:33:42.354Z,64.47
2016-08-13T00:34:42.158Z,64.18
2016-08-13T00:35:42.180Z,64.47
2016-08-13T00:36:42.318Z,64.56
2016-08-13T00:37:42.224Z,64.47
2016-08-13T00:38:42.246Z,64.08
2016-08-13T00:39:41.560Z,64.24
2016-08-13T00:40:42.274Z,64.28
2016-08-13T00:41:41.491Z,64.56
2016-08-13T00:42:41.495Z,64.28
2016-08-13T00:43:43.241Z,64.47
2016-08-13T00:44:43.383Z,63.89
2016-08-13T00:45:42.295Z,64.47
2016-08-13T00:46:41.520Z,64.47
2016-08-13T00:47:41.630Z,64.53
2016-08-13T00:48:42.242Z,64.53
2016-08-13T00:49:41.543Z,64.56
2016-08-13T00:50:42.584Z,64.28
2016-08-13T00:51:41.636Z,64.37
2016-08-13T00:52:42.315Z,64.56
2016-08-13T00:53:41.664Z,63.89
2016-08-13T00:54:41.575Z,63.89
2016-08-13T00:55:41.730Z,64.56
2016-08-13T00:56:42.429Z,64.18
2016-08-13T00:57:42.362Z,64.37
2016-08-13T00:58:42.300Z,64.56
2016-08-13T00:59:41.598Z,64.18
2016-08-13T01:00:41.666Z,64.66
2016-08-13T01:01:41.619Z,64.53
2016-08-13T01:02:42.439Z,64.47
2016-08-13T01:03:41.732Z,63.89
2016-08-13T01:04:42.443Z,64.37
2016-08-13T01:05:42.453Z,64.66
2016-08-13T01:06:41.676Z,64.56
2016-08-13T01:07:42.350Z,64.66
2016-08-13T01:08:42.445Z,64.66
2016-08-13T01:09:41.710Z,64.53
2016-08-13T01:10:42.414Z,63.95
2016-08-13T01:11:41.808Z,63.98
2016-08-13T01:12:42.464Z,64.43
2016-08-13T01:13:42.598Z,64.47
2016-08-13T01:14:42.563Z,64.66
2016-08-13T01:15:42.523Z,64.28
2016-08-13T01:16:42.413Z,64.53
2016-08-13T01:17:41.711Z,64.28
2016-08-13T01:18:42.525Z,64.08
2016-08-13T01:19:41.723Z,63.7
2016-08-13T01:20:42.528Z,63.6
2016-08-13T01:21:41.787Z,64.15
2016-08-13T01:22:42.500Z,64.56
2016-08-13T01:23:42.538Z,63.95
2016-08-13T01:24:42.657Z,64.56
2016-08-13T01:25:42.465Z,64.18
2016-08-13T01:26:42.486Z,63.85
2016-08-13T01:27:41.770Z,64.34
2016-08-13T01:28:42.506Z,64.24
2016-08-13T01:29:41.786Z,64.37
2016-08-13T01:30:41.791Z,64.05
2016-08-13T01:31:42.581Z,64.08
2016-08-13T01:32:42.511Z,64.08
2016-08-13T01:33:42.531Z,64.05
2016-08-13T01:34:41.914Z,64.18
2016-08-13T01:35:42.723Z,64.24
2016-08-13T01:36:42.605Z,63.98
2016-08-13T01:37:42.538Z,64.24
2016-08-13T01:38:41.989Z,63.79
2016-08-13T01:39:42.554Z,63.89
2016-08-13T01:40:42.559Z,64.15
2016-08-13T01:41:42.707Z,63.85
2016-08-13T01:42:41.936Z,64.53
2016-08-13T01:43:42.679Z,63.85
2016-08-13T01:44:41.985Z,64.08
2016-08-13T01:45:41.883Z,64.18
2016-08-13T01:46:42.666Z,63.89
2016-08-13T01:47:42.600Z,63.89
2016-08-13T01:48:42.608Z,63.89
2016-08-13T01:49:41.913Z,64.08
2016-08-13T01:50:41.919Z,63.98
2016-08-13T01:51:41.918Z,63.89
2016-08-13T01:52:41.925Z,63.85
2016-08-13T01:53:42.662Z,63.95
2016-08-13T01:54:41.936Z,64.24
2016-08-13T01:55:42.704Z,64.28
2016-08-13T01:56:42.729Z,64.24
2016-08-13T01:57:42.724Z,64.05
2016-08-13T01:58:42.064Z,63.98
2016-08-13T01:59:42.019Z,64.05
2016-08-13T02:00:42.689Z,63.98
2016-08-13T02:01:42.787Z,63.67
2016-08-13T02:02:42.698Z,64.18
2016-08-13T02:03:42.789Z,64.18
2016-08-13T02:04:42.047Z,63.98
2016-08-13T02:05:42.730Z,63.7
2016-08-13T02:06:42.747Z,64.28
2016-08-13T02:07:42.095Z,64.47
2016-08-13T02:08:42.731Z,64.28
2016-08-13T02:09:42.842Z,64.08
2016-08-13T02:10:42.036Z,64.28
2016-08-13T02:11:42.751Z,63.98
2016-08-13T02:12:42.755Z,63.89
2016-08-13T02:13:42.889Z,63.89
2016-08-13T02:14:42.793Z,63.7
2016-08-13T02:15:42.773Z,64.08
2016-08-13T02:16:42.076Z,64.24
2016-08-13T02:17:42.181Z,63.89
2016-08-13T02:18:42.790Z,63.89
2016-08-13T02:19:42.089Z,64.15
2016-08-13T02:20:42.833Z,63.89
2016-08-13T02:21:42.905Z,63.7
2016-08-13T02:22:42.108Z,63.85
2016-08-13T02:23:42.901Z,63.85
2016-08-13T02:24:42.856Z,63.89
2016-08-13T02:25:42.831Z,63.85
2016-08-13T02:26:42.952Z,63.57
2016-08-13T02:27:42.879Z,64.24
2016-08-13T02:28:42.851Z,63.98
2016-08-13T02:29:42.854Z,64.08
2016-08-13T02:30:42.990Z,63.95
2016-08-13T02:31:42.926Z,63.5
2016-08-13T02:32:42.986Z,63.98
2016-08-13T02:33:42.881Z,63.85
2016-08-13T02:34:42.888Z,63.7
2016-08-13T02:35:42.186Z,63.76
2016-08-13T02:36:42.338Z,63.7
2016-08-13T02:37:42.205Z,63.85
2016-08-13T02:38:42.937Z,64.05
2016-08-13T02:39:42.952Z,64.05
2016-08-13T02:40:42.989Z,63.85
2016-08-13T02:41:42.939Z,64.05
2016-08-13T02:42:42.286Z,63.85
2016-08-13T02:43:42.946Z,63.95
2016-08-13T02:44:42.301Z,63.95
2016-08-13T02:45:42.952Z,64.05
2016-08-13T02:46:42.958Z,63.95
2016-08-13T02:47:42.314Z,63.95
2016-08-13T02:48:42.410Z,63.95
2016-08-13T02:49:43.005Z,63.85
2016-08-13T02:50:42.277Z,63.37
2016-08-13T02:51:43.083Z,64.05
2016-08-13T02:52:42.360Z,63.57
2016-08-13T02:53:43.003Z,64.34
2016-08-13T02:54:43.029Z,63.67
2016-08-13T02:55:43.092Z,64.05
2016-08-13T02:56:43.070Z,63.85
2016-08-13T02:57:43.042Z,63.85
2016-08-13T02:58:43.031Z,63.85
2016-08-13T02:59:42.380Z,63.95
2016-08-13T03:00:43.046Z,64.24
2016-08-13T03:01:42.357Z,63.76
2016-08-13T03:02:43.057Z,63.67
2016-08-13T03:03:43.242Z,64.05
2016-08-13T03:04:43.122Z,62.99
2016-08-13T03:05:43.141Z,64.05
2016-08-13T03:06:42.420Z,64.05
2016-08-13T03:07:42.427Z,63.67
2016-08-13T03:08:43.190Z,63.28
2016-08-13T03:09:43.221Z,62.99
2016-08-13T03:10:43.100Z,63.57
2016-08-13T03:11:43.116Z,63.09
2016-08-13T03:12:43.113Z,63.28
2016-08-13T03:13:43.168Z,63.09
2016-08-13T03:14:43.149Z,63.76
2016-08-13T03:15:43.182Z,63.09
2016-08-13T03:16:43.148Z,63.76
2016-08-13T03:17:43.141Z,64.05
2016-08-13T03:18:42.441Z,63.76
2016-08-13T03:19:43.203Z,63.67
2016-08-13T03:20:43.165Z,64.15
2016-08-13T03:21:43.167Z,63.37
2016-08-13T03:22:43.189Z,63.09
2016-08-13T03:23:43.345Z,63.09
2016-08-13T03:24:43.183Z,62.99
2016-08-13T03:25:43.273Z,63.28
2016-08-13T03:26:43.247Z,63.18
2016-08-13T03:27:43.198Z,63.09
2016-08-13T03:28:43.260Z,63.09
2016-08-13T03:29:42.516Z,63.28
2016-08-13T03:30:42.510Z,63.37
2016-08-13T03:31:43.338Z,63.28
2016-08-13T03:32:43.232Z,63.09
2016-08-13T03:33:42.713Z,63.18
2016-08-13T03:34:42.531Z,63.18
2016-08-13T03:35:43.299Z,63.37
2016-08-13T03:36:43.249Z,63.18
2016-08-13T03:37:42.560Z,63.37
2016-08-13T03:38:43.331Z,63.28
2016-08-13T03:39:42.561Z,63.37
2016-08-13T03:40:42.565Z,63.09
2016-08-13T03:41:42.583Z,63.47
2016-08-13T03:42:43.383Z,63.37
2016-08-13T03:43:43.290Z,63.28
2016-08-13T03:44:43.359Z,63.18
2016-08-13T03:45:43.342Z,63.28
2016-08-13T03:46:43.343Z,63.47
2016-08-13T03:47:42.606Z,63.18
2016-08-13T03:48:42.613Z,63.18
2016-08-13T03:49:42.714Z,63.37
2016-08-13T03:50:43.335Z,63.18
2016-08-13T03:51:42.630Z,63.28
2016-08-13T03:52:43.342Z,63.18
2016-08-13T03:53:43.463Z,63.28
2016-08-13T03:54:43.430Z,63.37
2016-08-13T03:55:43.393Z,63.18
2016-08-13T03:56:42.659Z,63.37
2016-08-13T03:57:43.390Z,63.47
2016-08-13T03:58:42.744Z,63.57
2016-08-13T03:59:43.534Z,63.57
2016-08-13T04:00:42.687Z,63.47
2016-08-13T04:01:42.687Z,63.28
2016-08-13T04:02:43.452Z,62.99
2016-08-13T04:03:43.403Z,62.79
2016-08-13T04:04:43.436Z,62.79
2016-08-13T04:05:43.465Z,62.41
2016-08-13T04:06:42.721Z,62.51
2016-08-13T04:07:43.505Z,62.6
2016-08-13T04:08:42.752Z,62.6
2016-08-13T04:09:42.732Z,62.51
2016-08-13T04:10:43.850Z,62.7
2016-08-13T04:11:42.849Z,62.51
2016-08-13T04:12:43.461Z,62.31
2016-08-13T04:13:43.683Z,62.79
2016-08-13T04:14:43.510Z,62.41
2016-08-13T04:15:42.778Z,62.7
2016-08-13T04:16:42.773Z,62.51
2016-08-13T04:17:42.783Z,62.79
2016-08-13T04:18:43.495Z,62.6
2016-08-13T04:19:42.798Z,62.89
2016-08-13T04:20:43.627Z,62.6
2016-08-13T04:21:43.512Z,62.7
2016-08-13T04:22:42.811Z,62.51
2016-08-13T04:23:43.573Z,62.51
2016-08-13T04:24:42.822Z,62.89
2016-08-13T04:25:43.536Z,62.41
2016-08-13T04:26:42.853Z,61.83
2016-08-13T04:27:42.840Z,62.6
2016-08-13T04:28:43.647Z,62.51
2016-08-13T04:29:43.560Z,61.83
2016-08-13T04:30:42.858Z,62.41
2016-08-13T04:31:42.867Z,61.83
2016-08-13T04:32:43.577Z,62.02
2016-08-13T04:33:42.880Z,61.93
2016-08-13T04:34:43.588Z,62.89
2016-08-13T04:35:43.597Z,62.7
2016-08-13T04:36:43.620Z,61.93
2016-08-13T04:37:42.901Z,62.51
2016-08-13T04:38:43.714Z,62.79
2016-08-13T04:39:42.911Z,62.6
2016-08-13T04:40:43.011Z,62.51
2016-08-13T04:41:42.940Z,62.89
2016-08-13T04:42:43.682Z,62.02
2016-08-13T04:43:42.935Z,62.89
2016-08-13T04:44:43.683Z,62.6
2016-08-13T04:45:43.704Z,62.02
2016-08-13T04:46:43.687Z,62.89
2016-08-13T04:47:43.684Z,62.02
2016-08-13T04:48:42.965Z,62.12
2016-08-13T04:49:43.682Z,62.02
2016-08-13T04:50:43.784Z,62.41
2016-08-13T04:51:43.687Z,62.41
2016-08-13T04:52:43.011Z,62.31
2016-08-13T04:53:43.706Z,62.89
2016-08-13T04:54:43.717Z,62.79
2016-08-13T04:55:43.801Z,62.22
2016-08-13T04:56:43.015Z,62.41
2016-08-13T04:57:43.787Z,62.22
2016-08-13T04:58:43.729Z,62.41
2016-08-13T04:59:43.031Z,62.22
2016-08-13T05:00:43.743Z,62.6
2016-08-13T05:01:43.093Z,62.41
2016-08-13T05:02:43.755Z,62.51
2016-08-13T05:03:43.764Z,62.31
2016-08-13T05:04:43.063Z,62.02
2016-08-13T05:05:43.782Z,62.02
2016-08-13T05:06:43.793Z,62.02
2016-08-13T05:07:43.788Z,61.44
2016-08-13T05:08:43.796Z,61.74
2016-08-13T05:09:43.093Z,61.44
2016-08-13T05:10:43.808Z,61.44
2016-08-13T05:11:43.814Z,61.35
2016-08-13T05:12:43.822Z,61.38
2016-08-13T05:13:43.172Z,61.54
2016-08-13T05:14:43.127Z,61.19
2016-08-13T05:15:43.915Z,61.38
2016-08-13T05:16:43.848Z,60.89
2016-08-13T05:17:43.148Z,60.71
2016-08-13T05:18:43.863Z,60.71
2016-08-13T05:19:43.216Z,60.8
2016-08-13T05:20:43.173Z,60.89
2016-08-13T05:21:43.177Z,60.51
2016-08-13T05:22:43.195Z,60.03
2016-08-13T05:23:43.973Z,60.31
2016-08-13T05:24:43.200Z,59.74
2016-08-13T05:25:43.400Z,60.03
2016-08-13T05:26:43.923Z,59.93
2016-08-13T05:27:43.931Z,59.83
2016-08-13T05:28:43.939Z,60.51
2016-08-13T05:29:43.242Z,60.13
2016-08-13T05:30:43.956Z,60.13
2016-08-13T05:31:43.961Z,60.41
2016-08-13T05:32:43.262Z,60.31
2016-08-13T05:33:43.976Z,59.83
2016-08-13T05:34:43.984Z,59.83
2016-08-13T05:35:43.286Z,59.55
2016-08-13T05:36:43.290Z,59.55
2016-08-13T05:37:44.007Z,59.74
2016-08-13T05:38:43.307Z,59.35
2016-08-13T05:39:44.022Z,59.83
2016-08-13T05:40:44.029Z,59.74
2016-08-13T05:41:44.035Z,59.25
2016-08-13T05:42:43.334Z,59.83
2016-08-13T05:43:44.119Z,58.97
2016-08-13T05:44:44.120Z,59.16
2016-08-13T05:45:44.066Z,59.25
2016-08-13T05:46:43.363Z,59.64
2016-08-13T05:47:44.081Z,59.74
2016-08-13T05:48:44.083Z,60.22
2016-08-13T05:49:44.091Z,60.41
2016-08-13T05:50:44.103Z,60.61
2016-08-13T05:51:43.401Z,59.45
2016-08-13T05:52:44.121Z,59.83
2016-08-13T05:53:43.409Z,59.45
2016-08-13T05:54:43.418Z,59.74
2016-08-13T05:55:43.424Z,59.74
2016-08-13T05:56:44.137Z,59.83
2016-08-13T05:57:44.145Z,59.83
2016-08-13T05:58:43.451Z,59.64
2016-08-13T05:59:44.155Z,60.13
2016-08-13T06:00:43.453Z,60.13
2016-08-13T06:01:44.171Z,60.03
2016-08-13T06:02:43.471Z,59.45
2016-08-13T06:03:44.199Z,59.83
2016-08-13T06:04:43.480Z,59.93
2016-08-13T06:05:44.191Z,59.83
2016-08-13T06:06:44.198Z,59.64
2016-08-13T06:07:44.205Z,59.83
2016-08-13T06:08:43.553Z,59.45
2016-08-13T06:09:43.510Z,59.93
2016-08-13T06:10:43.518Z,59.93
2016-08-13T06:11:44.228Z,59.64
2016-08-13T06:12:43.528Z,59.74
2016-08-13T06:13:44.290Z,59.83
2016-08-13T06:14:43.540Z,59.83
2016-08-13T06:15:43.549Z,60.03
2016-08-13T06:16:44.261Z,59.74
2016-08-13T06:17:44.267Z,59.64
2016-08-13T06:18:44.279Z,59.64
2016-08-13T06:19:43.570Z,59.83
2016-08-13T06:20:43.588Z,59.93
2016-08-13T06:21:44.295Z,59.83
2016-08-13T06:22:43.588Z,59.64
2016-08-13T06:23:44.301Z,59.93
2016-08-13T06:24:44.312Z,59.74
2016-08-13T06:25:43.618Z,59.61
2016-08-13T06:26:44.320Z,59.83
2016-08-13T06:27:44.326Z,59.45
2016-08-13T06:28:44.414Z,59.64
2016-08-13T06:29:43.635Z,59.45
2016-08-13T06:30:43.649Z,59.61
2016-08-13T06:31:43.716Z,59.93
2016-08-13T06:32:43.654Z,59.8
2016-08-13T06:33:44.362Z,59.64
2016-08-13T06:34:43.659Z,59.93
2016-08-13T06:35:44.374Z,59.83
2016-08-13T06:36:43.673Z,59.8
2016-08-13T06:37:43.677Z,59.8
2016-08-13T06:38:44.392Z,59.61
2016-08-13T06:39:43.695Z,60.03
2016-08-13T06:40:43.703Z,59.64
2016-08-13T06:41:44.420Z,59.42
2016-08-13T06:42:43.710Z,59.45
2016-08-13T06:43:44.429Z,59.35
2016-08-13T06:44:43.721Z,59.16
2016-08-13T06:45:43.726Z,58.87
2016-08-13T06:46:43.733Z,58.68
2016-08-13T06:47:44.448Z,57.81
2016-08-13T06:48:44.452Z,58.03
2016-08-13T06:49:43.758Z,57.64
2016-08-13T06:50:43.759Z,57.35
2016-08-13T06:51:44.473Z,56.8
2016-08-13T06:52:44.482Z,56.51
2016-08-13T06:53:43.786Z,56.32
2016-08-13T06:54:43.790Z,56.22
2016-08-13T06:55:43.802Z,56.13
2016-08-13T06:56:44.513Z,56.51
2016-08-13T06:57:43.818Z,56.22
2016-08-13T06:58:43.824Z,56.32
2016-08-13T06:59:44.538Z,55.74
2016-08-13T07:00:44.554Z,55.87
2016-08-13T07:01:44.556Z,55.77
2016-08-13T07:02:44.564Z,55.67
2016-08-13T07:03:43.868Z,55.29
2016-08-13T07:04:43.884Z,55.19
2016-08-13T07:05:43.884Z,55.29
2016-08-13T07:06:43.891Z,54.99
2016-08-13T07:07:44.661Z,54.9
2016-08-13T07:08:43.964Z,54.9
2016-08-13T07:09:44.653Z,54.44
2016-08-13T07:10:44.016Z,54.63
2016-08-13T07:11:44.744Z,54.73
2016-08-13T07:12:44.657Z,54.53
2016-08-13T07:13:43.955Z,54.25
2016-08-13T07:14:44.701Z,53.86
2016-08-13T07:15:44.025Z,53.86
2016-08-13T07:16:44.831Z,53.86
2016-08-13T07:17:44.094Z,53.96
2016-08-13T07:18:44.003Z,53.57
2016-08-13T07:19:44.837Z,53.59
2016-08-13T07:20:44.729Z,53.77
2016-08-13T07:21:44.737Z,53.89
2016-08-13T07:22:44.766Z,54.35
2016-08-13T07:23:44.756Z,54.83
2016-08-13T07:24:44.766Z,55.87
2016-08-13T07:25:44.135Z,55.57
2016-08-13T07:26:44.799Z,55.83
2016-08-13T07:27:44.791Z,56.32
2016-08-13T07:28:44.100Z,56.32
2016-08-13T07:29:44.852Z,56.22
2016-08-13T07:30:44.871Z,56.22
2016-08-13T07:31:44.827Z,56.32
2016-08-13T07:32:44.833Z,56.41
2016-08-13T07:33:44.853Z,56.51
2016-08-13T07:34:44.868Z,56.32
2016-08-13T07:35:44.856Z,56.71
2016-08-13T07:36:44.170Z,56.8
2016-08-13T07:37:44.872Z,56.22
2016-08-13T07:38:44.878Z,57.16
2016-08-13T07:39:44.264Z,56.39
2016-08-13T07:40:44.929Z,56.58
2016-08-13T07:41:45.006Z,56.68
2016-08-13T07:42:44.906Z,57.06
2016-08-13T07:43:44.217Z,56.96
2016-08-13T07:44:44.989Z,56.68
2016-08-13T07:45:44.221Z,56.87
2016-08-13T07:46:45.045Z,57.06
2016-08-13T07:47:44.240Z,57.06
2016-08-13T07:48:44.950Z,56.8
2016-08-13T07:49:44.250Z,57.06
2016-08-13T07:50:44.256Z,56.77
2016-08-13T07:51:44.263Z,56.68
2016-08-13T07:52:44.979Z,56.9
2016-08-13T07:53:44.277Z,56.87
2016-08-13T07:54:44.336Z,57.06
2016-08-13T07:55:45.001Z,57.06
2016-08-13T07:56:44.302Z,56.99
2016-08-13T07:57:45.014Z,56.77
2016-08-13T07:58:45.021Z,56.58
2016-08-13T07:59:45.031Z,56.87
2016-08-13T08:00:45.037Z,56.58
2016-08-13T08:01:45.041Z,56.58
2016-08-13T08:02:45.049Z,56.77
2016-08-13T08:03:44.348Z,56.96
2016-08-13T08:04:44.355Z,56.77
2016-08-13T08:05:45.069Z,56.58
2016-08-13T08:06:45.073Z,56.8
2016-08-13T08:07:45.083Z,56.87
2016-08-13T08:08:45.089Z,57.06
2016-08-13T08:09:44.387Z,56.58
2016-08-13T08:10:44.445Z,56.96
2016-08-13T08:11:45.110Z,56.77
2016-08-13T08:12:45.114Z,56.68
2016-08-13T08:13:44.414Z,56.77
2016-08-13T08:14:45.133Z,56.77
2016-08-13T08:15:44.429Z,57.06
2016-08-13T08:16:45.167Z,56.96
2016-08-13T08:17:44.491Z,56.87
2016-08-13T08:18:45.202Z,56.96
2016-08-13T08:19:45.170Z,56.96
2016-08-13T08:20:45.167Z,56.96
2016-08-13T08:21:45.176Z,56.96
2016-08-13T08:22:44.474Z,56.99
2016-08-13T08:23:44.481Z,57.45
2016-08-13T08:24:45.199Z,56.96
2016-08-13T08:25:44.499Z,56.87
2016-08-13T08:26:44.510Z,57.06
2016-08-13T08:27:45.279Z,56.96
2016-08-13T08:28:45.231Z,56.96
2016-08-13T08:29:45.232Z,56.77
2016-08-13T08:30:44.531Z,57.09
2016-08-13T08:31:45.246Z,56.58
2016-08-13T08:32:44.545Z,57.64
2016-08-13T08:37:31.063Z,57.06
2016-08-13T08:38:31.829Z,57.16
2016-08-13T08:39:31.800Z,57.06
2016-08-13T08:40:31.790Z,56.96
2016-08-13T08:41:31.797Z,57.35
2016-08-13T08:42:31.110Z,57.16
2016-08-13T08:43:31.101Z,57.16
2016-08-13T08:44:31.873Z,57.06
2016-08-13T08:45:31.823Z,57.16
2016-08-13T08:46:31.833Z,56.96
2016-08-13T08:47:31.842Z,56.96
2016-08-13T08:48:31.841Z,56.96
2016-08-13T08:49:31.847Z,57.16
2016-08-13T08:50:31.858Z,57.16
2016-08-13T08:51:31.153Z,57.26
2016-08-13T08:52:31.874Z,56.87
2016-08-13T08:53:31.923Z,57.26
2016-08-13T08:54:31.882Z,57.06
2016-08-13T08:55:31.884Z,56.96
2016-08-13T08:56:31.892Z,57.06
2016-08-13T08:57:31.900Z,57.45
2016-08-13T08:58:31.906Z,57.26
2016-08-13T08:59:31.208Z,56.96
2016-08-13T09:00:31.921Z,57.16
2016-08-13T09:01:31.219Z,57.35
2016-08-13T09:02:31.934Z,57.06
2016-08-13T09:03:31.233Z,57.38
2016-08-13T09:04:31.947Z,57.54
2016-08-13T09:05:31.951Z,57.26
2016-08-13T09:06:31.252Z,57.06
2016-08-13T09:07:31.257Z,57.16
2016-08-13T09:08:31.974Z,57.06
2016-08-13T09:09:31.985Z,57.35
2016-08-13T09:10:31.983Z,56.96
2016-08-13T09:11:31.386Z,57.54
2016-08-13T09:12:31.292Z,57.45
2016-08-13T09:13:31.300Z,58.22
2016-08-13T09:14:32.064Z,58.12
2016-08-13T09:15:32.887Z,57.64
2016-08-13T09:16:31.317Z,57.16
2016-08-13T09:17:32.427Z,57.35
2016-08-13T09:18:32.042Z,57.16
2016-08-13T09:19:31.339Z,57.26
2016-08-13T09:20:32.053Z,56.96
2016-08-13T09:21:31.353Z,57.16
2016-08-13T09:22:32.064Z,57.16
2016-08-13T09:23:32.071Z,57.54
2016-08-13T09:24:31.372Z,57.35
2016-08-13T09:25:32.090Z,57.45
2016-08-13T09:26:32.287Z,56.96
2016-08-13T09:27:32.100Z,57.26
2016-08-13T09:28:32.155Z,57.16
2016-08-13T09:29:31.407Z,57.35
2016-08-13T09:30:32.119Z,57.35
2016-08-13T09:31:32.127Z,57.16
2016-08-13T09:32:31.428Z,57.26
2016-08-13T09:33:32.140Z,57.35
2016-08-13T09:34:32.148Z,57.54
2016-08-13T09:35:32.155Z,57.35
2016-08-13T09:36:32.160Z,57.26
2016-08-13T09:37:32.168Z,57.45
2016-08-13T09:38:32.173Z,57.35
2016-08-13T09:39:31.473Z,56.96
2016-08-13T09:40:31.481Z,58.03
2016-08-13T09:41:31.491Z,57.16
2016-08-13T09:42:32.208Z,57.35
2016-08-13T09:43:31.509Z,57.93
2016-08-13T09:44:31.508Z,58.03
2016-08-13T09:45:31.518Z,57.93
2016-08-13T09:46:32.233Z,58.32
2016-08-13T09:47:31.528Z,58.12
2016-08-13T09:48:31.535Z,58.12
2016-08-13T09:49:32.247Z,58.03
2016-08-13T09:50:32.700Z,57.84
2016-08-13T09:51:32.267Z,58.12
2016-08-13T09:52:31.562Z,58.51
2016-08-13T09:53:32.276Z,57.93
2016-08-13T09:54:31.573Z,58.03
2016-08-13T09:55:32.289Z,57.93
2016-08-13T09:56:32.346Z,58.03
2016-08-13T09:57:32.298Z,57.84
2016-08-13T09:58:31.603Z,57.84
2016-08-13T09:59:32.315Z,58.32
2016-08-13T10:00:31.610Z,57.84
2016-08-13T10:01:33.327Z,57.84
2016-08-13T10:02:32.335Z,57.54
2016-08-13T10:03:31.633Z,57.74
2016-08-13T10:04:32.347Z,57.45
2016-08-13T10:05:31.645Z,57.74
2016-08-13T10:06:31.655Z,58.12
2016-08-13T10:07:32.371Z,57.74
2016-08-13T10:08:31.664Z,57.35
2016-08-13T10:09:31.674Z,58.32
2016-08-13T10:10:33.438Z,57.84
2016-08-13T10:11:32.391Z,57.84
2016-08-13T10:12:32.899Z,57.93
2016-08-13T10:13:32.407Z,58.51
2016-08-13T10:14:32.412Z,58.03
2016-08-13T10:15:31.762Z,58.32
2016-08-13T10:16:32.425Z,58.03
2016-08-13T10:17:31.725Z,58.12
2016-08-13T10:18:31.832Z,58.12
2016-08-13T10:19:32.461Z,58.12
2016-08-13T10:20:31.744Z,57.93
2016-08-13T10:21:32.853Z,58.03
2016-08-13T10:22:32.471Z,57.54
2016-08-13T10:23:32.010Z,57.26
2016-08-13T10:24:32.476Z,56.96
2016-08-13T10:25:32.486Z,56.96
2016-08-13T10:26:32.490Z,57.54
2016-08-13T10:27:32.504Z,57.54
2016-08-13T10:28:32.853Z,57.45
2016-08-13T10:29:31.797Z,57.64
2016-08-13T10:30:32.519Z,56.96
2016-08-13T10:31:31.814Z,57.54
2016-08-13T10:32:32.728Z,57.06
2016-08-13T10:33:31.830Z,57.16
2016-08-13T10:34:31.831Z,57.16
2016-08-13T10:35:32.549Z,57.16
2016-08-13T10:36:32.557Z,56.96
2016-08-13T10:37:32.560Z,57.09
2016-08-13T10:38:32.571Z,56.96
2016-08-13T10:39:31.870Z,57.26
2016-08-13T10:40:32.584Z,57.35
2016-08-13T10:41:31.883Z,57.45
2016-08-13T10:42:32.598Z,57.35
2016-08-13T10:43:32.353Z,57.16
2016-08-13T10:44:31.904Z,57.26
2016-08-13T10:45:32.649Z,57.26
2016-08-13T10:46:32.625Z,57.35
2016-08-13T10:47:31.924Z,57.16
2016-08-13T10:48:31.931Z,57.26
2016-08-13T10:49:32.645Z,57.16
2016-08-13T10:50:31.944Z,56.96
2016-08-13T10:51:31.950Z,57.35
2016-08-13T10:52:32.668Z,57.06
2016-08-13T10:53:31.964Z,58.03
2016-08-13T10:54:32.075Z,57.84
2016-08-13T10:55:32.684Z,57.54
2016-08-13T10:56:33.796Z,57.35
2016-08-13T10:57:32.710Z,57.64
2016-08-13T10:58:32.711Z,57.93
2016-08-13T10:59:32.711Z,57.26
2016-08-13T11:00:32.723Z,57.54
2016-08-13T11:01:32.023Z,57.26
2016-08-13T11:02:32.740Z,57.84
2016-08-13T11:03:32.746Z,57.93
2016-08-13T11:04:32.745Z,57.35
2016-08-13T11:05:32.752Z,57.06
2016-08-13T11:06:32.754Z,57.26
2016-08-13T11:07:33.766Z,58.12
2016-08-13T11:08:32.064Z,57.35
2016-08-13T11:09:32.072Z,57.54
2016-08-13T11:10:32.075Z,57.26
2016-08-13T11:11:32.788Z,57.54
2016-08-13T11:12:32.795Z,57.35
2016-08-13T11:13:59.030Z,56.96
2016-08-13T11:14:32.809Z,57.26
2016-08-13T11:15:32.814Z,57.06
2016-08-13T11:16:33.447Z,56.96
2016-08-13T11:17:32.127Z,57.54
2016-08-13T11:18:33.135Z,56.96
2016-08-13T11:19:32.893Z,57.35
2016-08-13T11:20:32.147Z,57.35
2016-08-13T11:21:32.858Z,57.26
2016-08-13T11:22:32.859Z,57.06
2016-08-13T11:23:32.869Z,57.06
2016-08-13T11:24:32.165Z,57.16
2016-08-13T11:25:32.878Z,57.26
2016-08-13T11:26:32.180Z,57.35
2016-08-13T11:27:33.090Z,57.35
2016-08-13T11:28:32.899Z,57.35
2016-08-13T11:29:32.601Z,57.35
2016-08-13T11:30:32.913Z,57.35
2016-08-13T11:31:32.920Z,57.16
2016-08-13T11:32:32.928Z,56.87
2016-08-13T11:33:32.226Z,56.96
2016-08-13T11:34:32.236Z,57.54
2016-08-13T11:35:32.946Z,57.45
2016-08-13T11:36:32.246Z,57.35
2016-08-13T11:37:32.958Z,57.45
2016-08-13T11:38:32.610Z,57.35
2016-08-13T11:39:32.972Z,57.35
2016-08-13T11:40:32.272Z,57.45
2016-08-13T11:41:32.987Z,57.35
2016-08-13T11:42:32.289Z,57.54
2016-08-13T11:43:32.293Z,57.35
2016-08-13T11:44:32.299Z,57.35
2016-08-13T11:45:32.305Z,57.35
2016-08-13T11:46:33.018Z,57.16
2016-08-13T11:47:33.025Z,57.16
2016-08-13T11:48:33.047Z,57.35
2016-08-13T11:49:33.039Z,57.45
2016-08-13T11:50:33.044Z,56.87
2016-08-13T11:51:33.885Z,57.45
2016-08-13T11:52:32.353Z,56.77
2016-08-13T11:53:33.463Z,56.77
2016-08-13T11:54:33.073Z,56.77
2016-08-13T11:55:32.373Z,56.87
2016-08-13T11:56:32.383Z,56.87
2016-08-13T11:57:32.387Z,56.58
2016-08-13T11:58:33.101Z,56.87
2016-08-13T11:59:33.109Z,56.77
2016-08-13T12:00:32.414Z,57.06
2016-08-13T12:01:32.415Z,56.87
2016-08-13T12:02:33.511Z,56.77
2016-08-13T12:03:32.429Z,56.87
2016-08-13T12:04:33.246Z,56.96
2016-08-13T12:05:33.145Z,56.77
2016-08-13T12:06:33.155Z,57.06
2016-08-13T12:07:32.453Z,56.77
2016-08-13T12:08:33.166Z,56.77
2016-08-13T12:09:33.174Z,56.87
2016-08-13T12:10:32.475Z,56.58
2016-08-13T12:11:33.195Z,56.58
2016-08-13T12:12:32.487Z,56.58
2016-08-13T12:13:33.347Z,56.96
2016-08-13T12:14:32.502Z,56.77
2016-08-13T12:15:32.856Z,56.87
2016-08-13T12:16:33.225Z,56.87
2016-08-13T12:17:33.228Z,56.87
2016-08-13T12:18:33.232Z,56.87
2016-08-13T12:19:33.240Z,56.96
2016-08-13T12:20:32.542Z,56.96
2016-08-13T12:21:33.253Z,56.1
2016-08-13T12:22:32.603Z,56.39
2016-08-13T12:23:33.268Z,57.16
2016-08-13T12:24:32.819Z,56.48
2016-08-13T12:25:33.283Z,56.96
2016-08-13T12:26:34.265Z,56.96
2016-08-13T12:27:32.590Z,56.96
2016-08-13T12:28:33.350Z,56.87
2016-08-13T12:29:32.598Z,56.39
2016-08-13T12:30:32.604Z,56.48
2016-08-13T12:31:32.612Z,56.96
2016-08-13T12:32:32.620Z,56.87
2016-08-13T12:33:33.392Z,56.87
2016-08-13T12:34:33.387Z,56.96
2016-08-13T12:35:33.346Z,56.96
2016-08-13T12:36:32.657Z,56.87
2016-08-13T12:37:34.108Z,57.06
2016-08-13T12:38:33.365Z,56.48
2016-08-13T12:39:33.375Z,56.48
2016-08-13T12:40:32.673Z,56.68
2016-08-13T12:41:32.680Z,57.06
2016-08-13T12:42:32.686Z,56.29
2016-08-13T12:43:33.449Z,56.58
2016-08-13T12:44:32.699Z,56.87
2016-08-13T12:45:33.412Z,56.48
2016-08-13T12:46:33.419Z,56.68
2016-08-13T12:47:33.425Z,56.96
2016-08-13T12:48:34.518Z,56.96
2016-08-13T12:49:33.438Z,56.77
2016-08-13T12:50:33.447Z,56.96
2016-08-13T12:51:32.745Z,56.87
2016-08-13T12:52:32.752Z,57.06
2016-08-13T12:53:32.759Z,56.96
2016-08-13T12:54:32.767Z,56.96
2016-08-13T12:55:33.479Z,56.96
2016-08-13T12:56:32.781Z,56.87
2016-08-13T12:57:34.621Z,56.87